sensor_id;sensor_type;location;lat;lon;timestamp;temperature;humidity
43183;DHT22;28802;38.578;-0.066;2022-10-29T00:00:31;18.60;99.90
43183;DHT22;28802;38.578;-0.066;2022-10-29T00:02:57;18.50;99.90
43183;DHT22;28802;38.578;-0.066;2022-10-29T00:05:23;18.40;99.90
43183;DHT22;28802;38.578;-0.066;2022-10-29T00:07:49;18.30;99.90
43183;DHT22;28802;38.578;-0.066;2022-10-29T00:10:15;18.20;99.90
43183;DHT22;28802;38.578;-0.066;2022-10-29T00:12:41;18.20;99.90
43183;DHT22;28802;38.578;-0.066;2022-10-29T00:15:07;18.30;99.90
43183;DHT22;28802;38.578;-0.066;2022-10-29T00:17:33;18.20;99.90
43183;DHT22;28802;38.578;-0.066;2022-10-29T00:19:59;18.10;99.90
43183;DHT22;28802;38.578;-0.066;2022-10-29T00:22:25;18.00;99.90
43183;DHT22;28802;38.578;-0.066;2022-10-29T00:24:51;17.90;99.90
43183;DHT22;28802;38.578;-0.066;2022-10-29T00:27:16;17.90;99.90
43183;DHT22;28802;38.578;-0.066;2022-10-29T00:29:42;17.80;99.90
43183;DHT22;28802;38.578;-0.066;2022-10-29T00:32:08;17.80;99.90
43183;DHT22;28802;38.578;-0.066;2022-10-29T00:34:36;17.70;99.90
43183;DHT22;28802;38.578;-0.066;2022-10-29T00:37:05;17.70;99.90
43183;DHT22;28802;38.578;-0.066;2022-10-29T00:39:31;17.70;99.90
43183;DHT22;28802;38.578;-0.066;2022-10-29T00:42:00;17.60;99.90
43183;DHT22;28802;38.578;-0.066;2022-10-29T00:44:32;17.60;99.90
43183;DHT22;28802;38.578;-0.066;2022-10-29T00:49:59;17.40;99.90
43183;DHT22;28802;38.578;-0.066;2022-10-29T00:52:29;17.40;99.90
43183;DHT22;28802;38.578;-0.066;2022-10-29T00:54:57;17.30;99.90
43183;DHT22;28802;38.578;-0.066;2022-10-29T00:57:29;17.20;99.90
43183;DHT22;28802;38.578;-0.066;2022-10-29T00:59:56;17.10;99.90
43183;DHT22;28802;38.578;-0.066;2022-10-29T01:02:22;17.10;99.90
43183;DHT22;28802;38.578;-0.066;2022-10-29T01:04:50;17.20;99.90
43183;DHT22;28802;38.578;-0.066;2022-10-29T01:07:16;17.00;99.90
43183;DHT22;28802;38.578;-0.066;2022-10-29T01:09:42;17.00;99.90
43183;DHT22;28802;38.578;-0.066;2022-10-29T01:18:21;17.10;99.90
43183;DHT22;28802;38.578;-0.066;2022-10-29T01:32:13;16.90;99.90
43183;DHT22;28802;38.578;-0.066;2022-10-29T01:35:10;16.90;99.90
43183;DHT22;28802;38.578;-0.066;2022-10-29T01:37:58;17.00;99.90
43183;DHT22;28802;38.578;-0.066;2022-10-29T01:40:52;16.90;99.90
43183;DHT22;28802;38.578;-0.066;2022-10-29T01:46:20;16.80;99.90
43183;DHT22;28802;38.578;-0.066;2022-10-29T01:48:51;16.90;99.90
43183;DHT22;28802;38.578;-0.066;2022-10-29T01:51:22;16.80;99.90
43183;DHT22;28802;38.578;-0.066;2022-10-29T01:53:50;16.80;99.90
43183;DHT22;28802;38.578;-0.066;2022-10-29T01:56:17;16.70;99.90
43183;DHT22;28802;38.578;-0.066;2022-10-29T01:58:48;16.70;99.90
43183;DHT22;28802;38.578;-0.066;2022-10-29T02:04:26;16.90;99.90
43183;DHT22;28802;38.578;-0.066;2022-10-29T02:12:39;16.70;99.90
43183;DHT22;28802;38.578;-0.066;2022-10-29T02:18:05;16.90;99.90
43183;DHT22;28802;38.578;-0.066;2022-10-29T02:20:32;16.90;99.90
43183;DHT22;28802;38.578;-0.066;2022-10-29T02:22:58;16.90;99.90
43183;DHT22;28802;38.578;-0.066;2022-10-29T02:25:24;16.80;99.90
43183;DHT22;28802;38.578;-0.066;2022-10-29T02:27:50;16.90;99.90
43183;DHT22;28802;38.578;-0.066;2022-10-29T02:30:16;16.80;99.90
43183;DHT22;28802;38.578;-0.066;2022-10-29T02:32:42;16.80;99.90
43183;DHT22;28802;38.578;-0.066;2022-10-29T02:35:08;16.80;99.90
43183;DHT22;28802;38.578;-0.066;2022-10-29T02:37:34;16.70;99.90
43183;DHT22;28802;38.578;-0.066;2022-10-29T02:40:01;16.60;99.90
43183;DHT22;28802;38.578;-0.066;2022-10-29T02:42:27;16.60;99.90
43183;DHT22;28802;38.578;-0.066;2022-10-29T02:44:52;16.60;99.90
43183;DHT22;28802;38.578;-0.066;2022-10-29T02:47:18;16.50;99.90
43183;DHT22;28802;38.578;-0.066;2022-10-29T02:49:44;16.60;99.90
43183;DHT22;28802;38.578;-0.066;2022-10-29T02:52:10;16.50;99.90
43183;DHT22;28802;38.578;-0.066;2022-10-29T02:54:36;16.60;99.90
43183;DHT22;28802;38.578;-0.066;2022-10-29T02:57:04;16.70;99.90
43183;DHT22;28802;38.578;-0.066;2022-10-29T02:59:30;16.70;99.90
43183;DHT22;28802;38.578;-0.066;2022-10-29T03:01:55;16.60;99.90
43183;DHT22;28802;38.578;-0.066;2022-10-29T03:04:21;16.70;99.90
43183;DHT22;28802;38.578;-0.066;2022-10-29T03:06:47;16.60;99.90
43183;DHT22;28802;38.578;-0.066;2022-10-29T03:09:13;16.60;99.90
43183;DHT22;28802;38.578;-0.066;2022-10-29T03:11:39;16.70;99.90
43183;DHT22;28802;38.578;-0.066;2022-10-29T03:14:05;16.70;99.90
43183;DHT22;28802;38.578;-0.066;2022-10-29T03:16:31;16.90;99.90
43183;DHT22;28802;38.578;-0.066;2022-10-29T03:18:56;16.90;99.90
43183;DHT22;28802;38.578;-0.066;2022-10-29T03:21:22;16.80;99.90
43183;DHT22;28802;38.578;-0.066;2022-10-29T03:23:48;16.70;99.90
43183;DHT22;28802;38.578;-0.066;2022-10-29T03:26:14;16.70;99.90
43183;DHT22;28802;38.578;-0.066;2022-10-29T03:28:40;16.60;99.90
43183;DHT22;28802;38.578;-0.066;2022-10-29T03:31:06;16.80;99.90
43183;DHT22;28802;38.578;-0.066;2022-10-29T03:33:32;16.80;99.90
43183;DHT22;28802;38.578;-0.066;2022-10-29T03:35:59;16.90;99.90
43183;DHT22;28802;38.578;-0.066;2022-10-29T03:38:26;17.10;99.90
43183;DHT22;28802;38.578;-0.066;2022-10-29T03:40:52;16.90;99.90
43183;DHT22;28802;38.578;-0.066;2022-10-29T03:43:18;16.80;99.90
43183;DHT22;28802;38.578;-0.066;2022-10-29T03:45:50;16.90;99.90
43183;DHT22;28802;38.578;-0.066;2022-10-29T03:48:16;16.90;99.90
43183;DHT22;28802;38.578;-0.066;2022-10-29T03:50:42;16.90;99.90
43183;DHT22;28802;38.578;-0.066;2022-10-29T03:53:08;17.00;99.90
43183;DHT22;28802;38.578;-0.066;2022-10-29T03:55:34;17.00;99.90
43183;DHT22;28802;38.578;-0.066;2022-10-29T03:58:00;17.10;99.90
43183;DHT22;28802;38.578;-0.066;2022-10-29T04:00:28;17.10;99.90
43183;DHT22;28802;38.578;-0.066;2022-10-29T04:02:55;17.10;99.90
43183;DHT22;28802;38.578;-0.066;2022-10-29T04:05:21;17.10;99.90
43183;DHT22;28802;38.578;-0.066;2022-10-29T04:07:47;17.10;99.90
43183;DHT22;28802;38.578;-0.066;2022-10-29T04:10:13;17.50;99.90
43183;DHT22;28802;38.578;-0.066;2022-10-29T04:12:39;17.70;99.90
43183;DHT22;28802;38.578;-0.066;2022-10-29T04:15:09;17.70;99.90
43183;DHT22;28802;38.578;-0.066;2022-10-29T04:17:35;18.10;99.90
43183;DHT22;28802;38.578;-0.066;2022-10-29T04:20:01;17.90;99.90
43183;DHT22;28802;38.578;-0.066;2022-10-29T04:22:27;17.90;99.90
43183;DHT22;28802;38.578;-0.066;2022-10-29T04:24:53;18.10;99.90
43183;DHT22;28802;38.578;-0.066;2022-10-29T04:27:19;18.40;99.90
43183;DHT22;28802;38.578;-0.066;2022-10-29T04:29:45;18.20;99.90
43183;DHT22;28802;38.578;-0.066;2022-10-29T04:32:11;18.20;99.90
43183;DHT22;28802;38.578;-0.066;2022-10-29T04:34:37;18.00;99.90
43183;DHT22;28802;38.578;-0.066;2022-10-29T04:37:03;18.00;99.90
43183;DHT22;28802;38.578;-0.066;2022-10-29T04:39:29;18.10;99.90
43183;DHT22;28802;38.578;-0.066;2022-10-29T04:41:55;18.20;99.90
43183;DHT22;28802;38.578;-0.066;2022-10-29T04:44:20;18.30;99.90
43183;DHT22;28802;38.578;-0.066;2022-10-29T04:46:46;18.40;99.90
43183;DHT22;28802;38.578;-0.066;2022-10-29T04:49:15;18.50;99.90
43183;DHT22;28802;38.578;-0.066;2022-10-29T04:51:41;18.60;99.90
43183;DHT22;28802;38.578;-0.066;2022-10-29T04:54:07;18.70;99.90
43183;DHT22;28802;38.578;-0.066;2022-10-29T04:56:32;18.80;99.90
43183;DHT22;28802;38.578;-0.066;2022-10-29T04:58:58;18.80;99.90
43183;DHT22;28802;38.578;-0.066;2022-10-29T05:01:24;18.90;99.90
43183;DHT22;28802;38.578;-0.066;2022-10-29T05:03:50;18.80;99.90
43183;DHT22;28802;38.578;-0.066;2022-10-29T05:06:16;18.70;99.90
43183;DHT22;28802;38.578;-0.066;2022-10-29T05:08:42;18.70;99.90
43183;DHT22;28802;38.578;-0.066;2022-10-29T05:11:08;18.70;99.90
43183;DHT22;28802;38.578;-0.066;2022-10-29T05:13:34;18.70;99.90
43183;DHT22;28802;38.578;-0.066;2022-10-29T05:16:00;18.70;99.90
43183;DHT22;28802;38.578;-0.066;2022-10-29T05:18:26;18.80;99.90
43183;DHT22;28802;38.578;-0.066;2022-10-29T05:20:53;18.80;99.90
43183;DHT22;28802;38.578;-0.066;2022-10-29T05:23:19;18.90;99.90
43183;DHT22;28802;38.578;-0.066;2022-10-29T05:25:45;19.00;99.90
43183;DHT22;28802;38.578;-0.066;2022-10-29T05:28:21;19.00;99.90
43183;DHT22;28802;38.578;-0.066;2022-10-29T05:30:48;19.10;99.90
43183;DHT22;28802;38.578;-0.066;2022-10-29T05:33:17;19.10;99.90
43183;DHT22;28802;38.578;-0.066;2022-10-29T05:35:43;19.20;99.90
43183;DHT22;28802;38.578;-0.066;2022-10-29T05:38:11;19.20;99.90
43183;DHT22;28802;38.578;-0.066;2022-10-29T05:40:37;19.20;99.90
43183;DHT22;28802;38.578;-0.066;2022-10-29T05:43:03;19.30;99.90
43183;DHT22;28802;38.578;-0.066;2022-10-29T05:45:29;19.40;99.90
43183;DHT22;28802;38.578;-0.066;2022-10-29T05:47:56;19.50;99.90
43183;DHT22;28802;38.578;-0.066;2022-10-29T05:50:23;19.50;99.90
43183;DHT22;28802;38.578;-0.066;2022-10-29T05:53:05;19.50;99.90
43183;DHT22;28802;38.578;-0.066;2022-10-29T05:55:33;19.50;99.90
43183;DHT22;28802;38.578;-0.066;2022-10-29T05:58:02;19.50;99.90
43183;DHT22;28802;38.578;-0.066;2022-10-29T06:00:31;19.60;99.90
43183;DHT22;28802;38.578;-0.066;2022-10-29T06:02:57;19.60;99.90
43183;DHT22;28802;38.578;-0.066;2022-10-29T06:05:23;19.70;99.90
43183;DHT22;28802;38.578;-0.066;2022-10-29T06:07:56;19.70;99.90
43183;DHT22;28802;38.578;-0.066;2022-10-29T06:10:24;19.60;99.90
43183;DHT22;28802;38.578;-0.066;2022-10-29T06:12:50;19.70;99.90
43183;DHT22;28802;38.578;-0.066;2022-10-29T06:15:17;19.70;99.90
43183;DHT22;28802;38.578;-0.066;2022-10-29T06:17:44;19.70;99.90
43183;DHT22;28802;38.578;-0.066;2022-10-29T06:20:11;19.70;99.90
43183;DHT22;28802;38.578;-0.066;2022-10-29T06:22:37;19.80;99.90
43183;DHT22;28802;38.578;-0.066;2022-10-29T06:25:04;19.90;99.90
43183;DHT22;28802;38.578;-0.066;2022-10-29T06:27:30;19.80;99.90
43183;DHT22;28802;38.578;-0.066;2022-10-29T06:29:56;19.80;99.90
43183;DHT22;28802;38.578;-0.066;2022-10-29T06:32:22;19.70;99.90
43183;DHT22;28802;38.578;-0.066;2022-10-29T06:34:48;19.80;99.90
43183;DHT22;28802;38.578;-0.066;2022-10-29T06:37:14;19.80;99.90
43183;DHT22;28802;38.578;-0.066;2022-10-29T06:39:40;19.70;99.90
43183;DHT22;28802;38.578;-0.066;2022-10-29T06:42:06;19.70;99.90
43183;DHT22;28802;38.578;-0.066;2022-10-29T06:44:33;19.80;99.90
43183;DHT22;28802;38.578;-0.066;2022-10-29T06:46:59;20.00;99.90
43183;DHT22;28802;38.578;-0.066;2022-10-29T06:49:24;20.00;99.90
43183;DHT22;28802;38.578;-0.066;2022-10-29T06:51:51;20.00;99.90
43183;DHT22;28802;38.578;-0.066;2022-10-29T06:54:17;20.20;99.90
43183;DHT22;28802;38.578;-0.066;2022-10-29T06:56:45;20.40;99.90
43183;DHT22;28802;38.578;-0.066;2022-10-29T06:59:13;20.50;99.90
43183;DHT22;28802;38.578;-0.066;2022-10-29T07:01:40;20.50;99.90
43183;DHT22;28802;38.578;-0.066;2022-10-29T07:04:06;20.50;99.90
43183;DHT22;28802;38.578;-0.066;2022-10-29T07:06:32;20.60;99.90
43183;DHT22;28802;38.578;-0.066;2022-10-29T07:09:01;20.80;99.90
43183;DHT22;28802;38.578;-0.066;2022-10-29T07:11:27;21.10;99.90
43183;DHT22;28802;38.578;-0.066;2022-10-29T07:13:53;21.30;99.90
43183;DHT22;28802;38.578;-0.066;2022-10-29T07:16:19;21.70;99.90
43183;DHT22;28802;38.578;-0.066;2022-10-29T07:18:45;21.70;99.90
43183;DHT22;28802;38.578;-0.066;2022-10-29T07:21:11;22.10;99.90
43183;DHT22;28802;38.578;-0.066;2022-10-29T07:23:41;22.20;99.90
43183;DHT22;28802;38.578;-0.066;2022-10-29T07:26:08;22.30;99.90
43183;DHT22;28802;38.578;-0.066;2022-10-29T07:28:34;22.50;99.90
43183;DHT22;28802;38.578;-0.066;2022-10-29T07:31:00;22.40;99.90
43183;DHT22;28802;38.578;-0.066;2022-10-29T07:33:27;22.40;99.90
43183;DHT22;28802;38.578;-0.066;2022-10-29T07:35:58;22.60;99.90
43183;DHT22;28802;38.578;-0.066;2022-10-29T07:38:25;23.00;99.90
43183;DHT22;28802;38.578;-0.066;2022-10-29T07:40:51;23.60;99.90
43183;DHT22;28802;38.578;-0.066;2022-10-29T07:43:18;23.70;99.90
43183;DHT22;28802;38.578;-0.066;2022-10-29T07:45:46;23.70;99.90
43183;DHT22;28802;38.578;-0.066;2022-10-29T07:48:17;23.70;99.90
43183;DHT22;28802;38.578;-0.066;2022-10-29T07:50:43;23.80;99.90
43183;DHT22;28802;38.578;-0.066;2022-10-29T07:53:09;24.40;99.90
43183;DHT22;28802;38.578;-0.066;2022-10-29T07:55:35;24.60;99.90
43183;DHT22;28802;38.578;-0.066;2022-10-29T07:58:07;24.40;99.90
43183;DHT22;28802;38.578;-0.066;2022-10-29T08:00:38;24.50;99.90
43183;DHT22;28802;38.578;-0.066;2022-10-29T08:03:05;24.70;99.90
43183;DHT22;28802;38.578;-0.066;2022-10-29T08:05:31;24.80;99.90
43183;DHT22;28802;38.578;-0.066;2022-10-29T08:07:57;24.90;99.90
43183;DHT22;28802;38.578;-0.066;2022-10-29T08:10:23;25.30;99.90
43183;DHT22;28802;38.578;-0.066;2022-10-29T08:12:50;25.70;99.90
43183;DHT22;28802;38.578;-0.066;2022-10-29T08:15:17;26.00;99.90
43183;DHT22;28802;38.578;-0.066;2022-10-29T08:17:43;26.10;99.90
43183;DHT22;28802;38.578;-0.066;2022-10-29T08:20:10;26.20;99.90
43183;DHT22;28802;38.578;-0.066;2022-10-29T08:22:36;25.90;99.90
43183;DHT22;28802;38.578;-0.066;2022-10-29T08:25:02;26.00;99.90
43183;DHT22;28802;38.578;-0.066;2022-10-29T08:27:34;26.50;99.90
43183;DHT22;28802;38.578;-0.066;2022-10-29T08:30:00;26.50;99.90
43183;DHT22;28802;38.578;-0.066;2022-10-29T08:32:28;26.20;99.90
43183;DHT22;28802;38.578;-0.066;2022-10-29T08:34:55;26.60;99.90
43183;DHT22;28802;38.578;-0.066;2022-10-29T08:37:22;27.20;99.90
43183;DHT22;28802;38.578;-0.066;2022-10-29T08:39:48;27.10;99.90
43183;DHT22;28802;38.578;-0.066;2022-10-29T08:42:58;27.20;99.90
43183;DHT22;28802;38.578;-0.066;2022-10-29T08:45:33;27.50;99.90
43183;DHT22;28802;38.578;-0.066;2022-10-29T08:51:09;27.80;99.90
43183;DHT22;28802;38.578;-0.066;2022-10-29T08:53:48;27.80;99.90
43183;DHT22;28802;38.578;-0.066;2022-10-29T08:56:27;28.00;99.90
43183;DHT22;28802;38.578;-0.066;2022-10-29T09:01:36;28.60;99.90
43183;DHT22;28802;38.578;-0.066;2022-10-29T09:04:03;28.30;99.90
43183;DHT22;28802;38.578;-0.066;2022-10-29T09:09:37;29.00;99.90
43183;DHT22;28802;38.578;-0.066;2022-10-29T09:23:57;29.30;99.90
43183;DHT22;28802;38.578;-0.066;2022-10-29T09:32:04;27.50;99.90
43183;DHT22;28802;38.578;-0.066;2022-10-29T09:37:21;27.30;99.90
43183;DHT22;28802;38.578;-0.066;2022-10-29T09:39:48;26.70;99.90
43183;DHT22;28802;38.578;-0.066;2022-10-29T09:42:31;26.30;99.90
43183;DHT22;28802;38.578;-0.066;2022-10-29T09:45:02;26.60;99.90
43183;DHT22;28802;38.578;-0.066;2022-10-29T09:50:22;27.70;99.90
43183;DHT22;28802;38.578;-0.066;2022-10-29T09:52:54;27.80;99.90
43183;DHT22;28802;38.578;-0.066;2022-10-29T09:55:27;27.30;99.90
43183;DHT22;28802;38.578;-0.066;2022-10-29T09:57:55;26.90;99.90
43183;DHT22;28802;38.578;-0.066;2022-10-29T10:00:25;26.80;99.90
43183;DHT22;28802;38.578;-0.066;2022-10-29T10:03:02;26.30;99.90
43183;DHT22;28802;38.578;-0.066;2022-10-29T10:05:33;25.70;99.90
43183;DHT22;28802;38.578;-0.066;2022-10-29T10:08:14;25.90;99.90
43183;DHT22;28802;38.578;-0.066;2022-10-29T10:11:03;25.80;99.90
43183;DHT22;28802;38.578;-0.066;2022-10-29T10:13:35;25.60;99.90
43183;DHT22;28802;38.578;-0.066;2022-10-29T10:16:04;26.20;99.90
43183;DHT22;28802;38.578;-0.066;2022-10-29T10:21:01;26.20;99.90
43183;DHT22;28802;38.578;-0.066;2022-10-29T10:23:32;26.80;99.90
43183;DHT22;28802;38.578;-0.066;2022-10-29T10:26:03;27.40;99.90
43183;DHT22;28802;38.578;-0.066;2022-10-29T10:28:30;28.00;99.90
43183;DHT22;28802;38.578;-0.066;2022-10-29T10:33:29;26.30;99.90
43183;DHT22;28802;38.578;-0.066;2022-10-29T10:36:03;26.60;99.90
43183;DHT22;28802;38.578;-0.066;2022-10-29T10:38:38;26.80;99.90
43183;DHT22;28802;38.578;-0.066;2022-10-29T10:41:07;26.90;99.90
43183;DHT22;28802;38.578;-0.066;2022-10-29T10:43:34;26.70;99.90
43183;DHT22;28802;38.578;-0.066;2022-10-29T10:46:04;26.90;99.90
43183;DHT22;28802;38.578;-0.066;2022-10-29T10:48:31;26.60;99.90
43183;DHT22;28802;38.578;-0.066;2022-10-29T10:51:12;26.60;99.90
43183;DHT22;28802;38.578;-0.066;2022-10-29T10:53:41;26.90;99.90
43183;DHT22;28802;38.578;-0.066;2022-10-29T10:56:18;26.40;99.90
43183;DHT22;28802;38.578;-0.066;2022-10-29T10:59:04;25.50;99.90
43183;DHT22;28802;38.578;-0.066;2022-10-29T11:01:41;25.60;99.90
43183;DHT22;28802;38.578;-0.066;2022-10-29T11:04:22;25.50;99.90
43183;DHT22;28802;38.578;-0.066;2022-10-29T11:06:50;25.30;99.90
43183;DHT22;28802;38.578;-0.066;2022-10-29T11:09:32;25.20;99.90
43183;DHT22;28802;38.578;-0.066;2022-10-29T11:12:08;25.30;99.90
43183;DHT22;28802;38.578;-0.066;2022-10-29T11:14:54;25.00;99.90
43183;DHT22;28802;38.578;-0.066;2022-10-29T11:17:29;25.70;99.90
43183;DHT22;28802;38.578;-0.066;2022-10-29T11:20:00;26.90;99.90
43183;DHT22;28802;38.578;-0.066;2022-10-29T11:30:42;25.70;99.90
43183;DHT22;28802;38.578;-0.066;2022-10-29T11:42:14;25.00;99.90
43183;DHT22;28802;38.578;-0.066;2022-10-29T11:44:16;24.80;99.90
43183;DHT22;28802;38.578;-0.066;2022-10-29T11:52:59;24.70;99.90
43183;DHT22;28802;38.578;-0.066;2022-10-29T11:58:44;24.60;99.90
43183;DHT22;28802;38.578;-0.066;2022-10-29T12:01:18;24.70;99.90
43183;DHT22;28802;38.578;-0.066;2022-10-29T12:09:59;24.80;99.90
43183;DHT22;28802;38.578;-0.066;2022-10-29T12:21:08;24.80;99.90
43183;DHT22;28802;38.578;-0.066;2022-10-29T12:23:50;25.00;99.90
43183;DHT22;28802;38.578;-0.066;2022-10-29T12:26:28;25.00;99.90
43183;DHT22;28802;38.578;-0.066;2022-10-29T12:34:41;24.90;99.90
43183;DHT22;28802;38.578;-0.066;2022-10-29T12:40:37;24.70;99.90
43183;DHT22;28802;38.578;-0.066;2022-10-29T12:42:48;24.60;99.90
43183;DHT22;28802;38.578;-0.066;2022-10-29T12:48:33;24.40;99.90
43183;DHT22;28802;38.578;-0.066;2022-10-29T12:51:40;24.50;99.90
43183;DHT22;28802;38.578;-0.066;2022-10-29T12:56:46;24.70;99.90
43183;DHT22;28802;38.578;-0.066;2022-10-29T12:59:33;24.90;99.90
43183;DHT22;28802;38.578;-0.066;2022-10-29T13:13:03;24.60;99.90
43183;DHT22;28802;38.578;-0.066;2022-10-29T13:15:39;24.50;99.90
43183;DHT22;28802;38.578;-0.066;2022-10-29T13:21:04;24.30;99.90
43183;DHT22;28802;38.578;-0.066;2022-10-29T13:23:34;24.20;99.90
43183;DHT22;28802;38.578;-0.066;2022-10-29T13:26:02;24.20;99.90
43183;DHT22;28802;38.578;-0.066;2022-10-29T13:35:55;24.20;99.90
43183;DHT22;28802;38.578;-0.066;2022-10-29T13:38:45;24.20;99.90
43183;DHT22;28802;38.578;-0.066;2022-10-29T13:41:38;24.20;99.90
43183;DHT22;28802;38.578;-0.066;2022-10-29T13:44:12;24.30;99.90
43183;DHT22;28802;38.578;-0.066;2022-10-29T13:46:53;24.30;99.90
43183;DHT22;28802;38.578;-0.066;2022-10-29T13:49:23;24.30;99.90
43183;DHT22;28802;38.578;-0.066;2022-10-29T13:52:03;24.10;99.90
43183;DHT22;28802;38.578;-0.066;2022-10-29T13:54:55;24.20;99.90
43183;DHT22;28802;38.578;-0.066;2022-10-29T14:00:07;24.10;99.90
43183;DHT22;28802;38.578;-0.066;2022-10-29T14:02:47;24.10;99.90
43183;DHT22;28802;38.578;-0.066;2022-10-29T14:08:05;24.00;99.90
43183;DHT22;28802;38.578;-0.066;2022-10-29T14:13:12;24.00;99.90
43183;DHT22;28802;38.578;-0.066;2022-10-29T14:18:42;24.00;99.90
43183;DHT22;28802;38.578;-0.066;2022-10-29T14:21:28;24.00;99.90
43183;DHT22;28802;38.578;-0.066;2022-10-29T14:23:59;24.00;99.90
43183;DHT22;28802;38.578;-0.066;2022-10-29T14:26:28;23.80;99.90
43183;DHT22;28802;38.578;-0.066;2022-10-29T14:28:54;23.90;99.90
43183;DHT22;28802;38.578;-0.066;2022-10-29T14:31:21;23.90;99.90
43183;DHT22;28802;38.578;-0.066;2022-10-29T14:33:56;23.70;99.90
43183;DHT22;28802;38.578;-0.066;2022-10-29T14:36:45;23.80;99.90
43183;DHT22;28802;38.578;-0.066;2022-10-29T14:39:25;23.70;99.90
43183;DHT22;28802;38.578;-0.066;2022-10-29T14:41:53;23.60;99.90
43183;DHT22;28802;38.578;-0.066;2022-10-29T14:44:23;23.60;99.90
43183;DHT22;28802;38.578;-0.066;2022-10-29T14:49:47;23.60;99.90
43183;DHT22;28802;38.578;-0.066;2022-10-29T14:55:02;23.60;99.90
43183;DHT22;28802;38.578;-0.066;2022-10-29T14:57:33;23.50;99.90
43183;DHT22;28802;38.578;-0.066;2022-10-29T15:00:05;23.50;99.90
43183;DHT22;28802;38.578;-0.066;2022-10-29T15:02:37;23.50;99.90
43183;DHT22;28802;38.578;-0.066;2022-10-29T15:07:48;23.50;99.90
43183;DHT22;28802;38.578;-0.066;2022-10-29T15:10:24;23.40;99.90
43183;DHT22;28802;38.578;-0.066;2022-10-29T15:12:51;23.50;99.90
43183;DHT22;28802;38.578;-0.066;2022-10-29T15:23:05;23.40;99.90
43183;DHT22;28802;38.578;-0.066;2022-10-29T15:25:43;23.40;99.90
43183;DHT22;28802;38.578;-0.066;2022-10-29T15:28:13;23.30;99.90
43183;DHT22;28802;38.578;-0.066;2022-10-29T15:30:42;23.20;99.90
43183;DHT22;28802;38.578;-0.066;2022-10-29T15:33:16;23.20;99.90
43183;DHT22;28802;38.578;-0.066;2022-10-29T15:35:52;23.20;99.90
43183;DHT22;28802;38.578;-0.066;2022-10-29T15:43:46;23.00;99.90
43183;DHT22;28802;38.578;-0.066;2022-10-29T15:46:20;23.00;99.90
43183;DHT22;28802;38.578;-0.066;2022-10-29T15:48:46;23.00;99.90
43183;DHT22;28802;38.578;-0.066;2022-10-29T15:51:13;22.90;99.90
43183;DHT22;28802;38.578;-0.066;2022-10-29T15:53:39;22.90;99.90
43183;DHT22;28802;38.578;-0.066;2022-10-29T15:56:08;22.90;99.90
43183;DHT22;28802;38.578;-0.066;2022-10-29T15:58:35;22.80;99.90
43183;DHT22;28802;38.578;-0.066;2022-10-29T16:01:01;22.80;99.90
43183;DHT22;28802;38.578;-0.066;2022-10-29T16:03:27;22.80;99.90
43183;DHT22;28802;38.578;-0.066;2022-10-29T16:05:55;22.80;99.90
43183;DHT22;28802;38.578;-0.066;2022-10-29T16:08:31;22.80;99.90
43183;DHT22;28802;38.578;-0.066;2022-10-29T16:11:00;22.80;99.90
43183;DHT22;28802;38.578;-0.066;2022-10-29T16:13:28;22.80;99.90
43183;DHT22;28802;38.578;-0.066;2022-10-29T16:15:55;22.80;99.90
43183;DHT22;28802;38.578;-0.066;2022-10-29T16:18:21;22.80;99.90
43183;DHT22;28802;38.578;-0.066;2022-10-29T16:20:47;22.70;99.90
43183;DHT22;28802;38.578;-0.066;2022-10-29T16:23:14;22.70;99.90
43183;DHT22;28802;38.578;-0.066;2022-10-29T16:25:40;22.70;99.90
43183;DHT22;28802;38.578;-0.066;2022-10-29T16:28:06;22.60;99.90
43183;DHT22;28802;38.578;-0.066;2022-10-29T16:30:38;22.60;99.90
43183;DHT22;28802;38.578;-0.066;2022-10-29T16:33:05;22.60;99.90
43183;DHT22;28802;38.578;-0.066;2022-10-29T16:35:31;22.60;99.90
43183;DHT22;28802;38.578;-0.066;2022-10-29T16:37:57;22.60;99.90
43183;DHT22;28802;38.578;-0.066;2022-10-29T16:40:25;22.60;99.90
43183;DHT22;28802;38.578;-0.066;2022-10-29T16:42:52;22.60;99.90
43183;DHT22;28802;38.578;-0.066;2022-10-29T16:45:26;22.50;99.90
43183;DHT22;28802;38.578;-0.066;2022-10-29T16:47:53;22.50;99.90
43183;DHT22;28802;38.578;-0.066;2022-10-29T16:50:21;22.40;99.90
43183;DHT22;28802;38.578;-0.066;2022-10-29T16:52:54;22.50;99.90
43183;DHT22;28802;38.578;-0.066;2022-10-29T16:55:20;22.50;99.90
43183;DHT22;28802;38.578;-0.066;2022-10-29T16:57:46;22.40;99.90
43183;DHT22;28802;38.578;-0.066;2022-10-29T17:00:12;22.40;99.90
43183;DHT22;28802;38.578;-0.066;2022-10-29T17:02:38;22.40;99.90
43183;DHT22;28802;38.578;-0.066;2022-10-29T17:05:07;22.40;99.90
43183;DHT22;28802;38.578;-0.066;2022-10-29T17:07:33;22.30;99.90
43183;DHT22;28802;38.578;-0.066;2022-10-29T17:09:58;22.40;99.90
43183;DHT22;28802;38.578;-0.066;2022-10-29T17:12:24;22.30;99.90
43183;DHT22;28802;38.578;-0.066;2022-10-29T17:14:50;22.30;99.90
43183;DHT22;28802;38.578;-0.066;2022-10-29T17:17:20;22.30;99.90
43183;DHT22;28802;38.578;-0.066;2022-10-29T17:19:49;22.30;99.90
43183;DHT22;28802;38.578;-0.066;2022-10-29T17:22:15;22.30;99.90
43183;DHT22;28802;38.578;-0.066;2022-10-29T17:24:42;22.20;99.90
43183;DHT22;28802;38.578;-0.066;2022-10-29T17:27:11;22.20;99.90
43183;DHT22;28802;38.578;-0.066;2022-10-29T17:29:38;22.20;99.90
43183;DHT22;28802;38.578;-0.066;2022-10-29T17:32:06;22.20;99.90
43183;DHT22;28802;38.578;-0.066;2022-10-29T17:34:33;22.10;99.90
43183;DHT22;28802;38.578;-0.066;2022-10-29T17:36:59;22.00;99.90
43183;DHT22;28802;38.578;-0.066;2022-10-29T17:39:25;22.00;99.90
43183;DHT22;28802;38.578;-0.066;2022-10-29T17:41:51;21.90;99.90
43183;DHT22;28802;38.578;-0.066;2022-10-29T17:44:18;21.80;99.90
43183;DHT22;28802;38.578;-0.066;2022-10-29T17:46:44;21.80;99.90
43183;DHT22;28802;38.578;-0.066;2022-10-29T17:49:10;21.80;99.90
43183;DHT22;28802;38.578;-0.066;2022-10-29T17:51:39;21.60;99.90
43183;DHT22;28802;38.578;-0.066;2022-10-29T17:54:16;21.50;99.90
43183;DHT22;28802;38.578;-0.066;2022-10-29T17:56:42;21.40;99.90
43183;DHT22;28802;38.578;-0.066;2022-10-29T17:59:08;21.40;99.90
43183;DHT22;28802;38.578;-0.066;2022-10-29T18:01:34;21.40;99.90
43183;DHT22;28802;38.578;-0.066;2022-10-29T18:04:05;21.40;99.90
43183;DHT22;28802;38.578;-0.066;2022-10-29T18:06:31;21.40;99.90
43183;DHT22;28802;38.578;-0.066;2022-10-29T18:08:58;21.40;99.90
43183;DHT22;28802;38.578;-0.066;2022-10-29T18:11:24;21.40;99.90
43183;DHT22;28802;38.578;-0.066;2022-10-29T18:13:51;21.40;99.90
43183;DHT22;28802;38.578;-0.066;2022-10-29T18:16:19;21.50;99.90
43183;DHT22;28802;38.578;-0.066;2022-10-29T18:18:46;21.60;99.90
43183;DHT22;28802;38.578;-0.066;2022-10-29T18:21:15;21.50;99.90
43183;DHT22;28802;38.578;-0.066;2022-10-29T18:23:41;21.60;99.90
43183;DHT22;28802;38.578;-0.066;2022-10-29T18:26:32;21.60;99.90
43183;DHT22;28802;38.578;-0.066;2022-10-29T18:29:04;21.60;99.90